Time;durP1;ratioP1;P1;durP2;ratioP2;P2;SDS_P1;SDS_P2;PMS_P1;PMS_P2;Temp;Humidity;BMP_temperature;BMP_pressure;BME280_temperature;BME280_humidity;BME280_pressure;Samples;Min_cycle;Max_cycle;Signal;HPM_P1;HPM_P2
2022/07/14 00:00:09;;;;;;;;;;;;;;;;;;349901;28;959;-67
2022/07/14 00:00:19;;;;;;;;;;;;;;;;;;349963;28;943;-67
2022/07/14 00:00:30;;;;;;;;;;;;;;;;;;349887;28;967;-67
2022/07/14 00:00:40;;;;;;;;;;;;;;;;;;349981;28;1054;-67
2022/07/14 00:00:51;;;;;;;;;;;;;;;;;;349975;28;951;-67
2022/07/14 00:01:01;;;;;;;;;;;;;;;;;;349996;28;1007;-67
2022/07/14 00:01:11;;;;;;;;;;;;;;;;;;349893;28;919;-67
2022/07/14 00:01:22;;;;;;;;;;;;;;;;;;349950;28;1151;-67
2022/07/14 00:01:32;;;;;;;;;;;;;;;;;;349925;28;975;-67
2022/07/14 00:01:42;;;;;;;;;;;;;;;;;;349969;28;991;-67
2022/07/14 00:01:52;;;;;;;;;;;;;;;;;;349955;28;778;-67
2022/07/14 00:02:03;;;;;;;;;;;;;;;;;;349959;28;947;-67
2022/07/14 00:02:13;;;;;;;;;;;;;;;;;;349892;28;951;-67
2022/07/14 00:02:23;;;;;;;;;;;;;;;;;;350010;28;868;-67
2022/07/14 00:02:34;;;;;;;;;;;;;;;;;;349905;28;841;-67
2022/07/14 00:02:44;;;;;;;;;;;;;;;;;;349979;28;911;-67
2022/07/14 00:02:55;;;;;;;;;;;;;;;;;;349960;28;990;-67
2022/07/14 00:03:05;;;;;;;;;;;;;;;;;;349950;28;876;-67
2022/07/14 00:03:15;;;;;;;;;;;;;;;;;;349942;28;960;-67
2022/07/14 00:03:25;;;;;;;;;;;;;;;;;;349986;28;865;-67
2022/07/14 00:03:36;;;;;;;;;;;;;;;;;;349898;28;943;-67
2022/07/14 00:03:46;;;;;;;;;;;;;;;;;;349956;28;982;-67
2022/07/14 00:03:56;;;;;;;;;;;;;;;;;;350658;28;1416;-67
2022/07/14 00:04:07;;;;;;;;;;;;;;;;;;351334;28;911;-67
2022/07/14 00:04:17;;;;;;;;;;;;;;;;;;351297;28;1014;-67
2022/07/14 00:04:27;;;;;;;;;;;;;;;;;;351397;28;891;-67
2022/07/14 00:04:37;;;;;;;;;;;;;;;;;;351293;28;904;-67
2022/07/14 00:04:48;;;;;;;;;;;;;;;;;;351372;28;1061;-67
2022/07/14 00:04:58;;;;;;;;;;;;;;;;;;351399;28;840;-67
2022/07/14 00:05:08;;;;;;;;;;;;;;;;;;351328;28;956;-67
2022/07/14 00:05:18;;;;;;;;;;;;;;;;;;351370;28;1014;-67
2022/07/14 00:05:29;;;;;;;;;;;;;;;;;;351146;28;1309;-67
2022/07/14 00:05:40;;;;;;;;;;;;;;;;;;351295;28;870;-67
2022/07/14 00:05:50;;;;;;;;;;;;;;;;;;351356;28;827;-67
2022/07/14 00:06:00;;;;;;;;;;;;;;;;;;351346;28;935;-67
2022/07/14 00:06:10;;;;;;;;;;;;;;;;;;351320;28;796;-67
2022/07/14 00:06:21;;;;;;;;;;;;;;;;;;351358;28;844;-67
2022/07/14 00:06:32;;;;;;;;;;;;;;;;;;351352;28;817;-67
2022/07/14 00:06:42;;;;;;;;;;;;;;;;;;350712;28;1448;-67
2022/07/14 00:06:52;;;;;;;;;;;;;;;;;;350406;28;1412;-67
2022/07/14 00:07:02;;;;;;;;;;;;;;;;;;351348;28;916;-67
2022/07/14 00:07:13;;;;;;;;;;;;;;;;;;351282;28;1133;-67
2022/07/14 00:07:23;;;;;;;;;;;;;;;;;;351171;28;1471;-67
2022/07/14 00:07:33;;;;;;;;;;;;;;;;;;350005;28;1463;-67
2022/07/14 00:07:43;;;;;;;;;;;;;;;;;;351320;28;931;-67
2022/07/14 00:07:54;;;;;;;;;;;;;;;;;;351364;28;891;-67
2022/07/14 00:08:04;;;;;;;;;;;;;;;;;;351370;28;923;-67
2022/07/14 00:08:14;;;;;;;;;;;;;;;;;;351350;28;912;-67
2022/07/14 00:08:24;;;;;;;;;;;;;;;;;;351313;28;1014;-67
2022/07/14 00:08:35;;;;;;;;;;;;;;;;;;351351;28;852;-67
2022/07/14 00:08:45;;;;;;;;;;;;;;;;;;351239;28;1906;-67
2022/07/14 00:08:55;;;;;;;;;;;;;;;;;;351348;28;943;-67
2022/07/14 00:09:05;;;;;;;;;;;;;;;;;;351340;28;940;-67
2022/07/14 00:09:15;;;;;;;;;;;;;;;;;;351336;28;898;-67
2022/07/14 00:09:26;;;;;;;;;;;;;;;;;;351340;28;991;-67
2022/07/14 00:09:37;;;;;;;;;;;;;;;;;;351267;28;1502;-67
2022/07/14 00:09:47;;;;;;;;;;;;;;;;;;351362;28;931;-67
2022/07/14 00:09:57;;;;;;;;;;;;;;;;;;351370;28;959;-67
2022/07/14 00:10:08;;;;;;;;;;;;;;;;;;351378;28;931;-67
2022/07/14 00:10:18;;;;;;;;;;;;;;;;;;351349;28;911;-67
2022/07/14 00:10:28;;;;;;;;;;;;;;;;;;351388;28;805;-67
2022/07/14 00:10:38;;;;;;;;;;;;;;;;;;351266;28;900;-67
2022/07/14 00:10:49;;;;;;;;;;;;;;;;;;351332;28;919;-67
2022/07/14 00:10:59;;;;;;;;;;;;;;;;;;351380;28;991;-67
2022/07/14 00:11:10;;;;;;;;;;;;;;;;;;351357;28;907;-67
2022/07/14 00:11:20;;;;;;;;;;;;;;;;;;351351;28;931;-67
2022/07/14 00:11:30;;;;;;;;;;;;;;;;;;351312;28;1055;-67
2022/07/14 00:11:40;;;;;;;;;;;;;;;;;;351329;28;1095;-67
2022/07/14 00:11:50;;;;;;;;;;;;;;;;;;351315;28;852;-68
2022/07/14 00:12:01;;;;;;;;;;;;;;;;;;351324;28;1062;-67
2022/07/14 00:12:11;;;;;;;;;;;;;;;;;;351397;27;920;-67
2022/07/14 00:12:21;;;;;;;;;;;;;;;;;;351275;28;1181;-67
2022/07/14 00:12:31;;;;;;;;;;;;;;;;;;351354;28;915;-67
2022/07/14 00:12:42;;;;;;;;;;;;;;;;;;351253;28;768;-67
2022/07/14 00:12:52;;;;;;;;;;;;;;;;;;351321;28;919;-67
2022/07/14 00:13:02;;;;;;;;;;;;;;;;;;351384;28;924;-67
2022/07/14 00:13:12;;;;;;;;;;;;;;;;;;351355;28;999;-67
2022/07/14 00:13:22;;;;;;;;;;;;;;;;;;351352;28;852;-67
2022/07/14 00:13:33;;;;;;;;;;;;;;;;;;351317;28;924;-67
2022/07/14 00:13:43;;;;;;;;;;;;;;;;;;351342;28;856;-67
2022/07/14 00:13:53;;;;;;;;;;;;;;;;;;351206;28;1062;-67
2022/07/14 00:14:04;;;;;;;;;;;;;;;;;;351335;28;1010;-67
2022/07/14 00:14:14;;;;;;;;;;;;;;;;;;351355;28;927;-67
2022/07/14 00:14:24;;;;;;;;;;;;;;;;;;351316;28;931;-67
2022/07/14 00:14:34;;;;;;;;;;;;;;;;;;351345;28;979;-67
2022/07/14 00:14:45;;;;;;;;;;;;;;;;;;351284;28;966;-67
2022/07/14 00:14:55;;;;;;;;;;;;;;;;;;351305;28;872;-67
2022/07/14 00:15:05;;;;;;;;;;;;;;;;;;351369;28;939;-67
2022/07/14 00:15:16;;;;;;;;;;;;;;;;;;351359;28;923;-67
2022/07/14 00:15:26;;;;;;;;;;;;;;;;;;351317;28;912;-67
2022/07/14 00:15:37;;;;;;;;;;;;;;;;;;351344;28;971;-67
2022/07/14 00:15:47;;;;;;;;;;;;;;;;;;351381;28;817;-67
2022/07/14 00:15:57;;;;;;;;;;;;;;;;;;351319;28;961;-67
2022/07/14 00:16:07;;;;;;;;;;;;;;;;;;351318;28;1031;-68
2022/07/14 00:16:18;;;;;;;;;;;;;;;;;;351307;28;998;-67
2022/07/14 00:16:28;;;;;;;;;;;;;;;;;;351333;28;991;-67
2022/07/14 00:16:38;;;;;;;;;;;;;;;;;;351349;28;924;-67
2022/07/14 00:16:49;;;;;;;;;;;;;;;;;;351281;28;828;-67
2022/07/14 00:16:59;;;;;;;;;;;;;;;;;;351344;28;924;-67
2022/07/14 00:17:09;;;;;;;;;;;;;;;;;;351289;28;1197;-67
2022/07/14 00:17:19;;;;;;;;;;;;;;;;;;351319;28;994;-67
2022/07/14 00:17:30;;;;;;;;;;;;;;;;;;350299;28;1599;-67
2022/07/14 00:17:40;;;;;;;;;;;;;;;;;;351339;28;1062;-67
2022/07/14 00:17:50;;;;;;;;;;;;;;;;;;351304;28;962;-67
2022/07/14 00:18:00;;;;;;;;;;;;;;;;;;351379;28;942;-67
2022/07/14 00:18:11;;;;;;;;;;;;;;;;;;351316;28;994;-67
2022/07/14 00:18:21;;;;;;;;;;;;;;;;;;351364;28;928;-67
2022/07/14 00:18:31;;;;;;;;;;;;;;;;;;351258;28;1186;-67
2022/07/14 00:18:44;;;;;;;;;;;;;;;;;;351363;28;983;-67
2022/07/14 00:18:54;;;;;;;;;;;;;;;;;;351262;28;931;-67
2022/07/14 00:19:04;;;;;;;;;;;;;;;;;;351131;28;1324;-67
2022/07/14 00:19:15;;;;;;;;;;;;;;;;;;351338;28;976;-67
2022/07/14 00:19:25;;;;;;;;;;;;;;;;;;351333;28;1003;-67
2022/07/14 00:19:35;;;;;;;;;;;;;;;;;;351299;28;991;-67
2022/07/14 00:19:46;;;;;;;;;;;;;;;;;;351379;28;797;-67
2022/07/14 00:19:56;;;;;;;;;;;;;;;;;;351345;28;805;-67
2022/07/14 00:20:06;;;;;;;;;;;;;;;;;;351254;28;979;-67
2022/07/14 00:20:17;;;;;;;;;;;;;;;;;;351373;28;947;-67
2022/07/14 00:20:27;;;;;;;;;;;;;;;;;;351354;28;923;-67
2022/07/14 00:20:37;;;;;;;;;;;;;;;;;;351284;28;995;-67
2022/07/14 00:20:48;;;;;;;;;;;;;;;;;;351377;28;884;-67
2022/07/14 00:20:58;;;;;;;;;;;;;;;;;;351285;28;785;-67
2022/07/14 00:21:09;;;;;;;;;;;;;;;;;;351324;28;1126;-67
2022/07/14 00:21:19;;;;;;;;;;;;;;;;;;351393;28;1030;-67
2022/07/14 00:21:29;;;;;;;;;;;;;;;;;;351373;28;788;-67
2022/07/14 00:21:39;;;;;;;;;;;;;;;;;;351313;28;920;-67
2022/07/14 00:21:49;;;;;;;;;;;;;;;;;;351329;28;979;-67
2022/07/14 00:22:00;;;;;;;;;;;;;;;;;;351336;28;781;-67
2022/07/14 00:22:10;;;;;;;;;;;;;;;;;;351316;28;971;-67
2022/07/14 00:22:20;;;;;;;;;;;;;;;;;;351376;28;860;-67
2022/07/14 00:22:30;;;;;;;;;;;;;;;;;;351441;28;809;-67
2022/07/14 00:22:40;;;;;;;;;;;;;;;;;;351311;28;967;-67
2022/07/14 00:22:51;;;;;;;;;;;;;;;;;;351388;28;785;-67
2022/07/14 00:23:01;;;;;;;;;;;;;;;;;;351295;28;936;-67
2022/07/14 00:23:12;;;;;;;;;;;;;;;;;;351316;28;936;-67
2022/07/14 00:23:22;;;;;;;;;;;;;;;;;;351364;27;908;-67
2022/07/14 00:23:32;;;;;;;;;;;;;;;;;;351334;28;982;-67
2022/07/14 00:23:44;;;;;;;;;;;;;;;;;;351313;28;935;-67
2022/07/14 00:23:55;;;;;;;;;;;;;;;;;;351369;28;943;-67
2022/07/14 00:24:05;;;;;;;;;;;;;;;;;;351368;28;955;-67
2022/07/14 00:24:16;;;;;;;;;;;;;;;;;;351271;28;904;-67
2022/07/14 00:24:26;;;;;;;;;;;;;;;;;;351359;28;927;-67
2022/07/14 00:24:36;;;;;;;;;;;;;;;;;;351309;28;1007;-67
2022/07/14 00:24:46;;;;;;;;;;;;;;;;;;351309;28;990;-67
2022/07/14 00:24:57;;;;;;;;;;;;;;;;;;351337;28;907;-67
2022/07/14 00:25:08;;;;;;;;;;;;;;;;;;350158;28;1389;-67
2022/07/14 00:25:18;;;;;;;;;;;;;;;;;;349896;28;912;-67
2022/07/14 00:25:28;;;;;;;;;;;;;;;;;;349925;28;1006;-67
2022/07/14 00:25:38;;;;;;;;;;;;;;;;;;349932;28;952;-67
2022/07/14 00:25:49;;;;;;;;;;;;;;;;;;349918;28;932;-67
2022/07/14 00:25:59;;;;;;;;;;;;;;;;;;349921;28;904;-67
2022/07/14 00:26:10;;;;;;;;;;;;;;;;;;349992;28;797;-67
2022/07/14 00:26:20;;;;;;;;;;;;;;;;;;349899;28;1006;-67
2022/07/14 00:26:31;;;;;;;;;;;;;;;;;;349908;28;968;-67
2022/07/14 00:26:41;;;;;;;;;;;;;;;;;;349961;28;990;-67
2022/07/14 00:26:51;;;;;;;;;;;;;;;;;;349964;28;840;-68
2022/07/14 00:27:01;;;;;;;;;;;;;;;;;;349932;28;967;-67
2022/07/14 00:27:11;;;;;;;;;;;;;;;;;;350406;28;1369;-67
2022/07/14 00:27:22;;;;;;;;;;;;;;;;;;351356;28;911;-67
2022/07/14 00:27:32;;;;;;;;;;;;;;;;;;351335;28;963;-67
2022/07/14 00:27:43;;;;;;;;;;;;;;;;;;351310;28;966;-67
2022/07/14 00:27:54;;;;;;;;;;;;;;;;;;351450;27;864;-67
2022/07/14 00:28:04;;;;;;;;;;;;;;;;;;351386;28;896;-67
2022/07/14 00:28:14;;;;;;;;;;;;;;;;;;351338;28;967;-67
2022/07/14 00:28:24;;;;;;;;;;;;;;;;;;351352;28;856;-67
2022/07/14 00:28:34;;;;;;;;;;;;;;;;;;351315;28;908;-67
2022/07/14 00:28:45;;;;;;;;;;;;;;;;;;351343;28;1976;-67
2022/07/14 00:28:55;;;;;;;;;;;;;;;;;;350584;28;1327;-67
2022/07/14 00:29:05;;;;;;;;;;;;;;;;;;349928;28;993;-67
2022/07/14 00:29:16;;;;;;;;;;;;;;;;;;349963;28;844;-67
2022/07/14 00:29:26;;;;;;;;;;;;;;;;;;349896;28;911;-67
2022/07/14 00:29:36;;;;;;;;;;;;;;;;;;349932;28;952;-67
2022/07/14 00:29:46;;;;;;;;;;;;;;;;;;349936;28;900;-67
2022/07/14 00:29:57;;;;;;;;;;;;;;;;;;350126;28;907;-67
2022/07/14 00:30:07;;;;;;;;;;;;;;;;;;349923;28;995;-67
2022/07/14 00:30:18;;;;;;;;;;;;;;;;;;349879;28;1198;-67
2022/07/14 00:30:28;;;;;;;;;;;;;;;;;;349974;28;936;-67
2022/07/14 00:30:38;;;;;;;;;;;;;;;;;;349936;28;932;-67
2022/07/14 00:30:50;;;;;;;;;;;;;;;;;;349964;28;1042;-67
2022/07/14 00:31:03;;;;;;;;;;;;;;;;;;350014;28;802;-67
2022/07/14 00:31:13;;;;;;;;;;;;;;;;;;349937;28;877;-67
2022/07/14 00:31:24;;;;;;;;;;;;;;;;;;349967;28;872;-67
2022/07/14 00:31:34;;;;;;;;;;;;;;;;;;349972;28;932;-67
2022/07/14 00:31:45;;;;;;;;;;;;;;;;;;349973;28;777;-67
2022/07/14 00:31:55;;;;;;;;;;;;;;;;;;349958;28;916;-67
2022/07/14 00:32:08;;;;;;;;;;;;;;;;;;349883;28;970;-67
2022/07/14 00:32:19;;;;;;;;;;;;;;;;;;349968;28;959;-67
2022/07/14 00:32:29;;;;;;;;;;;;;;;;;;349944;28;908;-67
2022/07/14 00:32:39;;;;;;;;;;;;;;;;;;349920;28;971;-67
2022/07/14 00:32:49;;;;;;;;;;;;;;;;;;349941;28;912;-67
2022/07/14 00:32:59;;;;;;;;;;;;;;;;;;349933;28;1027;-67
2022/07/14 00:33:10;;;;;;;;;;;;;;;;;;349913;28;837;-67
2022/07/14 00:33:20;;;;;;;;;;;;;;;;;;349891;28;943;-67
2022/07/14 00:33:30;;;;;;;;;;;;;;;;;;349856;28;1011;-67
2022/07/14 00:33:41;;;;;;;;;;;;;;;;;;349974;28;904;-67
2022/07/14 00:33:51;;;;;;;;;;;;;;;;;;349934;28;1516;-67
2022/07/14 00:34:01;;;;;;;;;;;;;;;;;;351179;28;1645;-68
2022/07/14 00:34:12;;;;;;;;;;;;;;;;;;350619;28;1365;-67
2022/07/14 00:34:22;;;;;;;;;;;;;;;;;;350677;28;1763;-67
2022/07/14 00:34:32;;;;;;;;;;;;;;;;;;351354;28;920;-67
2022/07/14 00:34:42;;;;;;;;;;;;;;;;;;351260;28;1086;-67
2022/07/14 00:34:53;;;;;;;;;;;;;;;;;;351380;28;896;-67
2022/07/14 00:35:04;;;;;;;;;;;;;;;;;;351324;28;841;-67
2022/07/14 00:35:15;;;;;;;;;;;;;;;;;;351327;28;935;-67
2022/07/14 00:35:25;;;;;;;;;;;;;;;;;;351297;28;924;-67
2022/07/14 00:35:35;;;;;;;;;;;;;;;;;;351308;28;841;-67
2022/07/14 00:35:45;;;;;;;;;;;;;;;;;;351302;28;975;-67
2022/07/14 00:35:56;;;;;;;;;;;;;;;;;;351311;28;1112;-67
2022/07/14 00:36:07;;;;;;;;;;;;;;;;;;351278;28;935;-67
2022/07/14 00:36:17;;;;;;;;;;;;;;;;;;351334;28;975;-67
2022/07/14 00:36:27;;;;;;;;;;;;;;;;;;351358;28;797;-67
2022/07/14 00:36:38;;;;;;;;;;;;;;;;;;351340;28;885;-67
2022/07/14 00:36:48;;;;;;;;;;;;;;;;;;351278;28;991;-67
2022/07/14 00:36:58;;;;;;;;;;;;;;;;;;351316;28;1007;-67
2022/07/14 00:37:08;;;;;;;;;;;;;;;;;;351339;28;864;-67
2022/07/14 00:37:19;;;;;;;;;;;;;;;;;;351310;28;809;-67
2022/07/14 00:37:29;;;;;;;;;;;;;;;;;;351271;28;967;-67
2022/07/14 00:37:39;;;;;;;;;;;;;;;;;;351319;28;782;-67
2022/07/14 00:37:49;;;;;;;;;;;;;;;;;;351335;28;955;-67
2022/07/14 00:37:59;;;;;;;;;;;;;;;;;;351352;28;781;-67
2022/07/14 00:38:10;;;;;;;;;;;;;;;;;;351277;28;990;-67
2022/07/14 00:38:20;;;;;;;;;;;;;;;;;;351298;28;970;-67
2022/07/14 00:38:30;;;;;;;;;;;;;;;;;;351331;28;840;-67
2022/07/14 00:38:40;;;;;;;;;;;;;;;;;;351327;28;893;-67
2022/07/14 00:38:50;;;;;;;;;;;;;;;;;;351292;28;979;-67
2022/07/14 00:39:01;;;;;;;;;;;;;;;;;;351346;28;967;-67
2022/07/14 00:39:11;;;;;;;;;;;;;;;;;;351310;28;1043;-67
2022/07/14 00:39:21;;;;;;;;;;;;;;;;;;351328;28;1018;-67
2022/07/14 00:39:54;;;;;;;;;;;;;;;;;;351272;28;971;-67
2022/07/14 00:40:04;;;;;;;;;;;;;;;;;;351223;28;1220;-67
2022/07/14 00:40:14;;;;;;;;;;;;;;;;;;351348;28;837;-67
2022/07/14 00:40:25;;;;;;;;;;;;;;;;;;351362;28;931;-67
2022/07/14 00:40:35;;;;;;;;;;;;;;;;;;351318;28;931;-67
2022/07/14 00:40:45;;;;;;;;;;;;;;;;;;351328;28;923;-67
2022/07/14 00:40:56;;;;;;;;;;;;;;;;;;351298;28;1007;-67
2022/07/14 00:41:06;;;;;;;;;;;;;;;;;;351329;28;944;-67
2022/07/14 00:41:16;;;;;;;;;;;;;;;;;;351311;28;919;-67
2022/07/14 00:41:26;;;;;;;;;;;;;;;;;;351329;28;931;-67
2022/07/14 00:41:37;;;;;;;;;;;;;;;;;;351297;28;826;-67
2022/07/14 00:41:47;;;;;;;;;;;;;;;;;;351305;28;975;-67
2022/07/14 00:41:57;;;;;;;;;;;;;;;;;;351299;28;931;-67
2022/07/14 00:42:07;;;;;;;;;;;;;;;;;;351327;28;932;-67
2022/07/14 00:42:33;;;;;;;;;;;;;;;;;;351272;28;911;-67
2022/07/14 00:42:47;;;;;;;;;;;;;;;;;;351349;28;896;-67
2022/07/14 00:42:57;;;;;;;;;;;;;;;;;;351266;28;970;-67
2022/07/14 00:43:07;;;;;;;;;;;;;;;;;;351330;28;1006;-67
2022/07/14 00:43:18;;;;;;;;;;;;;;;;;;351374;28;856;-67
2022/07/14 00:43:28;;;;;;;;;;;;;;;;;;351295;28;872;-68
2022/07/14 00:43:38;;;;;;;;;;;;;;;;;;351321;28;952;-67
2022/07/14 00:43:49;;;;;;;;;;;;;;;;;;351369;28;919;-67
2022/07/14 00:44:00;;;;;;;;;;;;;;;;;;351253;28;928;-68
2022/07/14 00:44:10;;;;;;;;;;;;;;;;;;351370;28;955;-67
2022/07/14 00:44:20;;;;;;;;;;;;;;;;;;351335;28;947;-67
2022/07/14 00:44:30;;;;;;;;;;;;;;;;;;351299;28;951;-67
2022/07/14 00:44:41;;;;;;;;;;;;;;;;;;351365;28;864;-67
2022/07/14 00:44:51;;;;;;;;;;;;;;;;;;351335;28;975;-67
2022/07/14 00:45:03;;;;;;;;;;;;;;;;;;351291;28;904;-67
2022/07/14 00:45:15;;;;;;;;;;;;;;;;;;351358;28;916;-67
2022/07/14 00:45:26;;;;;;;;;;;;;;;;;;351298;28;1008;-67
2022/07/14 00:45:36;;;;;;;;;;;;;;;;;;351265;28;1073;-67
2022/07/14 00:45:46;;;;;;;;;;;;;;;;;;351357;28;880;-67
2022/07/14 00:45:56;;;;;;;;;;;;;;;;;;351321;28;829;-67
2022/07/14 00:46:07;;;;;;;;;;;;;;;;;;351274;28;971;-67
2022/07/14 00:46:17;;;;;;;;;;;;;;;;;;351329;28;967;-67
2022/07/14 00:46:27;;;;;;;;;;;;;;;;;;351342;28;785;-67
2022/07/14 00:46:38;;;;;;;;;;;;;;;;;;351272;28;978;-67
2022/07/14 00:46:48;;;;;;;;;;;;;;;;;;351325;28;939;-67
2022/07/14 00:46:58;;;;;;;;;;;;;;;;;;351290;27;871;-67
2022/07/14 00:47:10;;;;;;;;;;;;;;;;;;351297;28;915;-67
2022/07/14 00:47:20;;;;;;;;;;;;;;;;;;351347;28;960;-67
2022/07/14 00:47:31;;;;;;;;;;;;;;;;;;351266;28;1062;-67
2022/07/14 00:47:45;;;;;;;;;;;;;;;;;;351292;28;924;-67
2022/07/14 00:47:57;;;;;;;;;;;;;;;;;;351346;28;948;-67
2022/07/14 00:48:07;;;;;;;;;;;;;;;;;;351280;28;931;-67
2022/07/14 00:48:17;;;;;;;;;;;;;;;;;;351312;28;970;-68
2022/07/14 00:48:27;;;;;;;;;;;;;;;;;;351342;28;927;-67
2022/07/14 00:48:38;;;;;;;;;;;;;;;;;;351315;28;1036;-67
2022/07/14 00:48:48;;;;;;;;;;;;;;;;;;351197;27;1906;-67
2022/07/14 00:48:58;;;;;;;;;;;;;;;;;;350452;28;1270;-67
2022/07/14 00:49:08;;;;;;;;;;;;;;;;;;350532;28;1858;-67
2022/07/14 00:49:34;;;;;;;;;;;;;;;;;;351322;28;932;-68
2022/07/14 00:49:45;;;;;;;;;;;;;;;;;;351380;28;793;-67
2022/07/14 00:49:56;;;;;;;;;;;;;;;;;;351296;27;924;-67
2022/07/14 00:50:07;;;;;;;;;;;;;;;;;;351326;28;856;-67
2022/07/14 00:50:18;;;;;;;;;;;;;;;;;;351364;28;774;-67
2022/07/14 00:50:28;;;;;;;;;;;;;;;;;;351280;28;935;-67
2022/07/14 00:50:41;;;;;;;;;;;;;;;;;;351410;28;999;-68
2022/07/14 00:50:51;;;;;;;;;;;;;;;;;;351361;28;994;-67
2022/07/14 00:51:02;;;;;;;;;;;;;;;;;;351305;28;919;-67
2022/07/14 00:51:12;;;;;;;;;;;;;;;;;;351363;28;790;-67
2022/07/14 00:51:22;;;;;;;;;;;;;;;;;;351339;28;928;-67
2022/07/14 00:51:33;;;;;;;;;;;;;;;;;;351268;28;904;-67
2022/07/14 00:51:43;;;;;;;;;;;;;;;;;;351372;28;943;-68
2022/07/14 00:51:53;;;;;;;;;;;;;;;;;;351348;28;1018;-67
2022/07/14 00:52:03;;;;;;;;;;;;;;;;;;351305;28;971;-67
2022/07/14 00:52:14;;;;;;;;;;;;;;;;;;351313;28;856;-67
2022/07/14 00:52:25;;;;;;;;;;;;;;;;;;351339;28;916;-67
2022/07/14 00:52:35;;;;;;;;;;;;;;;;;;351347;28;904;-67
2022/07/14 00:52:47;;;;;;;;;;;;;;;;;;351316;28;924;-68
2022/07/14 00:52:57;;;;;;;;;;;;;;;;;;351333;28;955;-67
2022/07/14 00:53:08;;;;;;;;;;;;;;;;;;351302;28;987;-67
2022/07/14 00:53:19;;;;;;;;;;;;;;;;;;351303;28;904;-67
2022/07/14 00:53:29;;;;;;;;;;;;;;;;;;351332;27;874;-67
2022/07/14 00:53:39;;;;;;;;;;;;;;;;;;351322;28;836;-67
2022/07/14 00:53:51;;;;;;;;;;;;;;;;;;351351;28;884;-67
2022/07/14 00:54:01;;;;;;;;;;;;;;;;;;351279;28;1107;-67
2022/07/14 00:54:23;;;;;;;;;;;;;;;;;;351284;28;923;-68
2022/07/14 00:54:34;;;;;;;;;;;;;;;;;;351280;28;1015;-67
2022/07/14 00:54:44;;;;;;;;;;;;;;;;;;351296;28;1035;-67
2022/07/14 00:54:55;;;;;;;;;;;;;;;;;;351302;28;959;-67
2022/07/14 00:55:05;;;;;;;;;;;;;;;;;;351394;28;769;-67
2022/07/14 00:55:16;;;;;;;;;;;;;;;;;;351440;28;761;-67
2022/07/14 00:55:26;;;;;;;;;;;;;;;;;;351292;28;1146;-67
2022/07/14 00:55:36;;;;;;;;;;;;;;;;;;351431;28;908;-68
2022/07/14 00:55:47;;;;;;;;;;;;;;;;;;351595;28;979;-67
2022/07/14 00:55:57;;;;;;;;;;;;;;;;;;351575;28;1003;-67
2022/07/14 00:56:07;;;;;;;;;;;;;;;;;;351577;28;959;-67
2022/07/14 00:56:17;;;;;;;;;;;;;;;;;;351532;28;1003;-67
2022/07/14 00:56:28;;;;;;;;;;;;;;;;;;351563;28;848;-68
2022/07/14 00:56:38;;;;;;;;;;;;;;;;;;351582;28;971;-67
2022/07/14 00:56:48;;;;;;;;;;;;;;;;;;351593;28;975;-67
2022/07/14 00:56:58;;;;;;;;;;;;;;;;;;351567;28;884;-68
2022/07/14 00:57:09;;;;;;;;;;;;;;;;;;351584;28;963;-67
2022/07/14 00:57:19;;;;;;;;;;;;;;;;;;351571;28;995;-67
2022/07/14 00:57:30;;;;;;;;;;;;;;;;;;351612;28;1006;-67
2022/07/14 00:57:40;;;;;;;;;;;;;;;;;;351473;28;1076;-67
2022/07/14 00:57:50;;;;;;;;;;;;;;;;;;351585;28;959;-67
2022/07/14 00:58:01;;;;;;;;;;;;;;;;;;351570;28;920;-67
2022/07/14 00:58:11;;;;;;;;;;;;;;;;;;351560;28;842;-68
2022/07/14 00:58:22;;;;;;;;;;;;;;;;;;351596;28;1033;-67
2022/07/14 00:58:33;;;;;;;;;;;;;;;;;;351605;28;781;-67
2022/07/14 00:58:43;;;;;;;;;;;;;;;;;;351523;28;903;-67
2022/07/14 00:58:53;;;;;;;;;;;;;;;;;;351598;28;798;-67
2022/07/14 00:59:03;;;;;;;;;;;;;;;;;;351535;28;1161;-67
2022/07/14 00:59:13;;;;;;;;;;;;;;;;;;351543;28;911;-67
2022/07/14 00:59:24;;;;;;;;;;;;;;;;;;350833;28;1235;-67
2022/07/14 00:59:34;;;;;;;;;;;;;;;;;;350863;28;1739;-67
2022/07/14 00:59:44;;;;;;;;;;;;;;;;;;351525;28;797;-68
2022/07/14 00:59:56;;;;;;;;;;;;;;;;;;351555;28;857;-67
2022/07/14 01:00:08;;;;;;;;;;;;;;;;;;351542;28;979;-67
2022/07/14 01:00:18;;;;;;;;;;;;;;;;;;351520;27;920;-67
2022/07/14 01:00:28;;;;;;;;;;;;;;;;;;351544;28;1102;-68
2022/07/14 01:00:39;;;;;;;;;;;;;;;;;;351515;28;1054;-67
2022/07/14 01:00:49;;;;;;;;;;;;;;;;;;351533;28;959;-67
2022/07/14 01:01:00;;;;;;;;;;;;;;;;;;351666;28;927;-68
2022/07/14 01:01:10;;;;;;;;;;;;;;;;;;351574;28;964;-67
2022/07/14 01:01:20;;;;;;;;;;;;;;;;;;351506;28;889;-68
2022/07/14 01:01:31;;;;;;;;;;;;;;;;;;351558;28;967;-67
2022/07/14 01:01:41;;;;;;;;;;;;;;;;;;351571;28;903;-67
2022/07/14 01:01:51;;;;;;;;;;;;;;;;;;351556;28;923;-67
2022/07/14 01:02:01;;;;;;;;;;;;;;;;;;351569;28;1090;-67
2022/07/14 01:02:12;;;;;;;;;;;;;;;;;;351602;28;983;-67
2022/07/14 01:02:22;;;;;;;;;;;;;;;;;;351521;28;967;-67
2022/07/14 01:02:33;;;;;;;;;;;;;;;;;;351650;28;969;-67
2022/07/14 01:02:43;;;;;;;;;;;;;;;;;;351497;28;904;-67
2022/07/14 01:02:54;;;;;;;;;;;;;;;;;;351497;28;1011;-67
2022/07/14 01:03:05;;;;;;;;;;;;;;;;;;351589;27;928;-67
2022/07/14 01:03:15;;;;;;;;;;;;;;;;;;351624;28;801;-67
2022/07/14 01:03:25;;;;;;;;;;;;;;;;;;351519;28;1027;-67
2022/07/14 01:03:36;;;;;;;;;;;;;;;;;;351180;28;1531;-67
2022/07/14 01:03:46;;;;;;;;;;;;;;;;;;351566;28;927;-67
2022/07/14 01:03:56;;;;;;;;;;;;;;;;;;351563;28;928;-67
2022/07/14 01:04:07;;;;;;;;;;;;;;;;;;351577;28;928;-67
2022/07/14 01:04:17;;;;;;;;;;;;;;;;;;351606;28;789;-67
2022/07/14 01:04:27;;;;;;;;;;;;;;;;;;351528;28;923;-67
2022/07/14 01:04:37;;;;;;;;;;;;;;;;;;351543;28;991;-67
2022/07/14 01:04:48;;;;;;;;;;;;;;;;;;351494;28;903;-67
2022/07/14 01:04:58;;;;;;;;;;;;;;;;;;351531;28;920;-67
2022/07/14 01:05:08;;;;;;;;;;;;;;;;;;351593;28;891;-67
2022/07/14 01:05:18;;;;;;;;;;;;;;;;;;351583;28;927;-67
2022/07/14 01:05:29;;;;;;;;;;;;;;;;;;351527;28;1030;-68
2022/07/14 01:05:39;;;;;;;;;;;;;;;;;;351614;28;876;-67
2022/07/14 01:05:49;;;;;;;;;;;;;;;;;;351580;28;990;-67
2022/07/14 01:05:59;;;;;;;;;;;;;;;;;;351544;28;904;-67
2022/07/14 01:06:09;;;;;;;;;;;;;;;;;;351630;28;798;-67
2022/07/14 01:06:20;;;;;;;;;;;;;;;;;;351569;28;967;-67
2022/07/14 01:06:30;;;;;;;;;;;;;;;;;;351520;28;984;-67
2022/07/14 01:06:40;;;;;;;;;;;;;;;;;;351623;28;785;-67
2022/07/14 01:06:50;;;;;;;;;;;;;;;;;;351460;28;995;-67
2022/07/14 01:07:00;;;;;;;;;;;;;;;;;;351548;28;916;-67
2022/07/14 01:07:12;;;;;;;;;;;;;;;;;;351589;28;900;-67
2022/07/14 01:07:22;;;;;;;;;;;;;;;;;;351607;28;756;-67
2022/07/14 01:07:32;;;;;;;;;;;;;;;;;;351569;28;920;-67
2022/07/14 01:07:43;;;;;;;;;;;;;;;;;;351584;28;967;-67
2022/07/14 01:07:53;;;;;;;;;;;;;;;;;;351556;28;833;-67
2022/07/14 01:08:04;;;;;;;;;;;;;;;;;;351599;28;943;-67
2022/07/14 01:08:14;;;;;;;;;;;;;;;;;;351619;28;810;-67
2022/07/14 01:08:24;;;;;;;;;;;;;;;;;;351594;28;786;-67
2022/07/14 01:08:35;;;;;;;;;;;;;;;;;;351570;28;892;-67
2022/07/14 01:08:45;;;;;;;;;;;;;;;;;;351452;28;1906;-68
2022/07/14 01:08:55;;;;;;;;;;;;;;;;;;351534;28;908;-67
2022/07/14 01:09:05;;;;;;;;;;;;;;;;;;351540;28;956;-67
2022/07/14 01:09:15;;;;;;;;;;;;;;;;;;351610;28;940;-67
2022/07/14 01:09:26;;;;;;;;;;;;;;;;;;351627;28;837;-67
2022/07/14 01:09:36;;;;;;;;;;;;;;;;;;350114;28;960;-68
2022/07/14 01:09:46;;;;;;;;;;;;;;;;;;350209;28;971;-67
2022/07/14 01:09:57;;;;;;;;;;;;;;;;;;350153;28;809;-67
2022/07/14 01:10:07;;;;;;;;;;;;;;;;;;350182;28;987;-67
2022/07/14 01:10:18;;;;;;;;;;;;;;;;;;350220;28;864;-67
2022/07/14 01:10:28;;;;;;;;;;;;;;;;;;350139;28;912;-67
2022/07/14 01:10:38;;;;;;;;;;;;;;;;;;350178;28;920;-67
2022/07/14 01:10:49;;;;;;;;;;;;;;;;;;350195;28;963;-67
2022/07/14 01:10:59;;;;;;;;;;;;;;;;;;350122;28;896;-67
2022/07/14 01:11:09;;;;;;;;;;;;;;;;;;350149;28;952;-67
2022/07/14 01:11:19;;;;;;;;;;;;;;;;;;350132;28;959;-67
2022/07/14 01:11:29;;;;;;;;;;;;;;;;;;350241;28;1011;-68
2022/07/14 01:11:40;;;;;;;;;;;;;;;;;;350150;28;980;-67
2022/07/14 01:11:51;;;;;;;;;;;;;;;;;;350149;28;1010;-67
2022/07/14 01:12:01;;;;;;;;;;;;;;;;;;350157;28;967;-67
2022/07/14 01:12:11;;;;;;;;;;;;;;;;;;350167;28;861;-67
2022/07/14 01:12:22;;;;;;;;;;;;;;;;;;350205;28;921;-67
2022/07/14 01:12:32;;;;;;;;;;;;;;;;;;350210;28;786;-67
2022/07/14 01:12:46;;;;;;;;;;;;;;;;;;350192;28;986;-67
2022/07/14 01:13:01;;;;;;;;;;;;;;;;;;350149;28;948;-67
2022/07/14 01:13:11;;;;;;;;;;;;;;;;;;350165;28;939;-67
2022/07/14 01:13:22;;;;;;;;;;;;;;;;;;350221;28;778;-67
2022/07/14 01:13:32;;;;;;;;;;;;;;;;;;350137;28;876;-67
2022/07/14 01:13:45;;;;;;;;;;;;;;;;;;350105;28;786;-67
2022/07/14 01:13:55;;;;;;;;;;;;;;;;;;350194;28;974;-67
2022/07/14 01:14:05;;;;;;;;;;;;;;;;;;350089;28;1014;-68
2022/07/14 01:14:16;;;;;;;;;;;;;;;;;;350269;28;1856;-67
2022/07/14 01:14:26;;;;;;;;;;;;;;;;;;350830;28;1620;-67
2022/07/14 01:14:37;;;;;;;;;;;;;;;;;;351566;28;976;-67
2022/07/14 01:14:47;;;;;;;;;;;;;;;;;;351588;28;932;-67
2022/07/14 01:14:57;;;;;;;;;;;;;;;;;;351510;28;904;-68
2022/07/14 01:15:07;;;;;;;;;;;;;;;;;;351520;28;853;-67
2022/07/14 01:15:18;;;;;;;;;;;;;;;;;;351549;28;982;-67
2022/07/14 01:15:28;;;;;;;;;;;;;;;;;;351610;28;781;-67
2022/07/14 01:15:39;;;;;;;;;;;;;;;;;;351535;28;974;-68
2022/07/14 01:15:49;;;;;;;;;;;;;;;;;;351577;28;769;-67